Time;durP1;ratioP1;P1;durP2;ratioP2;P2;SDS_P1;SDS_P2;PMS_P1;PMS_P2;Temp;Humidity;BMP_temperature;BMP_pressure;BME280_temperature;BME280_humidity;BME280_pressure;Samples;Min_cycle;Max_cycle;Signal;HPM_P1;HPM_P2
2023/03/10 00:01:24;;;;;;;6.93;1.80;;;14.70;52.10;;;;;;5021483;28;20453;-88
2023/03/10 00:03:52;;;;;;;4.13;1.50;;;14.70;51.70;;;;;;5056430;28;20467;-89
2023/03/10 00:06:21;;;;;;;2.57;1.40;;;14.60;52.00;;;;;;5026735;28;20452;-88
2023/03/10 00:08:48;;;;;;;1.63;1.27;;;14.80;52.10;;;;;;5026732;28;20906;-90
2023/03/10 00:11:15;;;;;;;3.80;1.90;;;14.50;52.50;;;;;;5052631;28;20457;-88
2023/03/10 00:13:44;;;;;;;4.23;1.67;;;14.30;53.40;;;;;;5023018;28;20476;-90
2023/03/10 00:16:17;;;;;;;3.70;1.50;;;14.30;53.80;;;;;;5026214;28;20447;-89
2023/03/10 00:18:45;;;;;;;5.37;1.60;;;14.50;53.90;;;;;;5035329;28;20485;-88
2023/03/10 00:21:15;;;;;;;3.00;1.30;;;14.60;54.00;;;;;;5036437;28;20722;-88
2023/03/10 00:23:42;;;;;;;3.83;1.30;;;14.60;54.40;;;;;;5043827;28;20472;-89
2023/03/10 00:26:12;;;;;;;4.80;1.67;;;14.40;54.80;;;;;;5023531;28;20459;-89
2023/03/10 00:28:40;;;;;;;4.83;2.03;;;14.20;55.90;;;;;;5021740;28;21007;-88
2023/03/10 00:31:11;;;;;;;3.90;1.80;;;14.20;56.40;;;;;;5020656;28;20448;-89
2023/03/10 00:33:39;;;;;;;1.50;1.00;;;14.20;56.10;;;;;;5026545;28;20541;-88
2023/03/10 00:36:09;;;;;;;2.17;1.40;;;14.30;56.10;;;;;;5025695;28;20445;-89
2023/03/10 00:38:37;;;;;;;1.90;1.10;;;14.40;55.90;;;;;;5042560;28;20452;-88
2023/03/10 00:41:06;;;;;;;1.07;0.87;;;14.40;56.20;;;;;;5044057;28;20535;-90
2023/03/10 00:43:33;;;;;;;1.40;1.10;;;14.50;56.30;;;;;;5040380;28;20476;-92
2023/03/10 00:46:01;;;;;;;2.13;1.17;;;14.40;56.50;;;;;;5044633;28;20455;-89
2023/03/10 00:48:29;;;;;;;1.53;1.03;;;14.20;56.70;;;;;;5025439;28;20475;-90
2023/03/10 00:50:56;;;;;;;3.03;1.47;;;14.00;57.90;;;;;;5057576;28;20455;-89
2023/03/10 00:53:24;;;;;;;5.13;1.20;;;14.10;58.00;;;;;;5050035;28;20675;-90
2023/03/10 00:55:59;;;;;;;4.13;1.00;;;14.30;57.50;;;;;;5061439;28;20478;-90
2023/03/10 00:58:27;;;;;;;2.27;1.20;;;14.60;57.20;;;;;;5060836;28;20443;-88
2023/03/10 01:00:54;;;;;;;1.40;0.83;;;14.40;57.40;;;;;;5045885;28;20437;-89
2023/03/10 01:03:22;;;;;;;1.83;0.80;;;14.30;58.20;;;;;;5044831;28;20551;-90
2023/03/10 01:05:51;;;;;;;2.60;1.10;;;14.30;58.30;;;;;;5042168;28;21021;-89
2023/03/10 01:08:18;;;;;;;4.83;0.80;;;14.30;58.50;;;;;;5027387;28;20503;-88
2023/03/10 01:10:46;;;;;;;1.00;0.90;;;14.10;59.20;;;;;;5041700;28;20449;-88
2023/03/10 01:13:14;;;;;;;1.30;1.00;;;14.10;59.50;;;;;;5060956;28;20486;-88
2023/03/10 01:15:43;;;;;;;1.83;1.20;;;14.20;59.10;;;;;;5047966;28;20480;-89
2023/03/10 01:18:10;;;;;;;1.40;0.83;;;14.30;58.80;;;;;;5043948;28;20518;-90
2023/03/10 01:20:40;;;;;;;2.50;1.20;;;14.20;58.90;;;;;;5023786;28;20814;-86
2023/03/10 01:23:12;;;;;;;0.90;0.80;;;14.30;58.90;;;;;;5063850;28;20467;-91
2023/03/10 01:25:39;;;;;;;2.13;1.87;;;14.30;58.70;;;;;;5054954;28;22750;-89
2023/03/10 01:28:06;;;;;;;0.93;0.87;;;14.00;59.30;;;;;;5040393;28;20550;-88
2023/03/10 01:30:33;;;;;;;1.10;0.80;;;13.70;59.70;;;;;;5060377;28;20476;-89
2023/03/10 01:33:00;;;;;;;1.10;1.00;;;14.00;60.20;;;;;;5063728;28;20504;-88
2023/03/10 01:35:28;;;;;;;1.20;0.90;;;14.10;59.70;;;;;;5024050;28;20471;-89
2023/03/10 01:37:55;;;;;;;1.27;1.00;;;14.10;59.30;;;;;;5050213;28;20475;-90
2023/03/10 01:40:25;;;;;;;1.90;1.30;;;14.20;59.30;;;;;;5037437;28;20448;-88
2023/03/10 01:42:52;;;;;;;2.67;1.00;;;14.10;59.40;;;;;;5023311;28;20836;-88
2023/03/10 01:46:05;;;;;;;1.10;0.90;;;14.00;59.70;;;;;;5050138;28;20460;-90
2023/03/10 01:48:35;;;;;;;3.63;1.00;;;14.10;59.80;;;;;;5008890;28;20984;-89
2023/03/10 01:51:03;;;;;;;0.80;0.70;;;14.20;59.40;;;;;;5028378;28;20489;-89
2023/03/10 01:53:31;;;;;;;1.53;1.00;;;14.30;59.50;;;;;;5036232;28;20468;-89
2023/03/10 01:56:03;;;;;;;1.00;0.80;;;14.30;59.00;;;;;;5029181;28;20452;-90
2023/03/10 01:58:36;;;;;;;2.73;1.07;;;14.20;59.30;;;;;;5044218;28;20484;-90
2023/03/10 02:01:04;;;;;;;1.00;0.90;;;13.90;59.90;;;;;;5054618;28;20444;-88
2023/03/10 02:03:36;;;;;;;0.90;0.70;;;13.80;60.60;;;;;;5038783;28;20463;-88
2023/03/10 02:06:08;;;;;;;2.90;1.03;;;14.10;59.80;;;;;;5032538;28;20460;-89
2023/03/10 02:08:39;;;;;;;1.10;0.80;;;14.20;59.60;;;;;;5055623;28;20466;-89
2023/03/10 02:11:08;;;;;;;2.47;1.10;;;14.20;59.30;;;;;;5058259;28;20829;-91
2023/03/10 02:13:34;;;;;;;1.67;0.80;;;14.20;59.00;;;;;;5039028;28;20482;-88
2023/03/10 02:16:02;;;;;;;1.10;0.90;;;14.30;59.50;;;;;;5053508;28;20962;-89
2023/03/10 02:18:30;;;;;;;1.17;0.83;;;14.20;59.70;;;;;;5067703;28;20451;-88
2023/03/10 02:21:08;;;;;;;0.97;0.87;;;14.10;59.80;;;;;;5072781;28;20451;-88
2023/03/10 02:23:41;;;;;;;1.20;0.80;;;14.20;59.70;;;;;;5045049;28;20929;-88
2023/03/10 02:26:15;;;;;;;3.47;1.00;;;14.20;60.10;;;;;;5044345;28;20459;-88
2023/03/10 02:28:44;;;;;;;1.20;1.00;;;14.30;59.70;;;;;;5052713;28;20467;-89
2023/03/10 02:31:13;;;;;;;0.93;0.80;;;14.20;59.90;;;;;;5048694;28;20489;-91
2023/03/10 02:33:43;;;;;;;1.73;0.90;;;14.10;60.50;;;;;;5026051;28;20486;-89
2023/03/10 02:36:13;;;;;;;0.80;0.70;;;14.20;60.50;;;;;;5044542;28;20492;-91
2023/03/10 02:38:40;;;;;;;1.20;0.80;;;14.20;60.20;;;;;;5043812;28;20824;-89
2023/03/10 02:41:16;;;;;;;4.70;0.80;;;14.30;60.20;;;;;;5028368;28;20449;-91
2023/03/10 02:43:44;;;;;;;1.00;0.80;;;14.40;60.20;;;;;;5050339;28;20472;-89
2023/03/10 02:46:19;;;;;;;0.97;0.73;;;14.30;60.40;;;;;;5030587;28;20487;-90
2023/03/10 02:48:47;;;;;;;1.00;0.80;;;14.10;61.20;;;;;;5044545;28;20480;-91
2023/03/10 02:51:23;;;;;;;1.73;1.00;;;14.20;61.20;;;;;;5045303;28;20448;-90
2023/03/10 02:53:52;;;;;;;1.73;0.80;;;14.20;61.20;;;;;;5030362;28;20464;-89
2023/03/10 02:56:19;;;;;;;0.77;0.63;;;14.20;61.40;;;;;;5042024;28;20502;-91
2023/03/10 02:58:48;;;;;;;1.20;0.90;;;14.10;61.90;;;;;;5045674;28;20455;-88
2023/03/10 03:01:15;;;;;;;1.00;0.80;;;14.10;61.90;;;;;;5038977;28;20464;-91
2023/03/10 03:03:42;;;;;;;1.07;0.83;;;14.10;62.10;;;;;;5042805;28;20494;-91
2023/03/10 03:06:10;;;;;;;0.73;0.70;;;14.10;62.30;;;;;;5062088;28;20976;-88
2023/03/10 03:08:37;;;;;;;1.00;0.90;;;14.10;61.70;;;;;;5053631;28;20475;-89
2023/03/10 03:11:07;;;;;;;1.10;1.00;;;14.20;61.70;;;;;;5056560;28;20810;-89
2023/03/10 03:13:34;;;;;;;0.80;0.80;;;14.10;61.50;;;;;;5029534;28;20571;-88
2023/03/10 03:16:04;;;;;;;1.20;0.70;;;14.00;62.10;;;;;;5046421;28;20460;-88
2023/03/10 03:18:31;;;;;;;0.77;0.70;;;14.00;62.20;;;;;;5039992;28;20945;-88
2023/03/10 03:20:58;;;;;;;3.67;1.00;;;14.00;62.40;;;;;;5053914;28;20526;-90
2023/03/10 03:23:26;;;;;;;1.13;0.80;;;14.10;62.20;;;;;;5053773;28;20562;-90
2023/03/10 03:25:53;;;;;;;0.80;0.70;;;13.80;62.80;;;;;;5071129;28;20443;-88
2023/03/10 03:28:21;;;;;;;1.00;0.90;;;13.60;63.60;;;;;;5045573;28;20634;-88
2023/03/10 03:30:50;;;;;;;0.73;0.63;;;13.70;63.60;;;;;;5027927;28;20453;-88
2023/03/10 03:33:19;;;;;;;1.97;0.97;;;13.40;64.30;;;;;;5044107;28;20460;-88
2023/03/10 03:35:46;;;;;;;1.40;0.80;;;13.60;64.20;;;;;;5041531;28;20452;-87
2023/03/10 03:38:15;;;;;;;4.13;0.70;;;13.90;63.50;;;;;;5054061;28;20987;-90
2023/03/10 03:40:43;;;;;;;2.00;0.90;;;13.90;63.00;;;;;;5033868;28;20437;-88
2023/03/10 03:43:13;;;;;;;1.00;0.80;;;13.90;62.80;;;;;;5055435;28;20477;-89
2023/03/10 03:45:41;;;;;;;1.80;0.93;;;13.80;63.50;;;;;;5058622;28;20803;-91
2023/03/10 03:48:09;;;;;;;2.73;0.90;;;13.60;63.90;;;;;;5068794;28;20573;-89
2023/03/10 03:50:38;;;;;;;4.03;1.10;;;13.60;64.40;;;;;;5026032;28;20441;-88
2023/03/10 03:53:12;;;;;;;1.07;0.97;;;13.50;64.50;;;;;;5039816;28;20464;-88
2023/03/10 03:55:40;;;;;;;1.10;1.00;;;13.70;63.90;;;;;;5026763;28;20440;-89
2023/03/10 03:58:08;;;;;;;1.30;0.90;;;13.80;64.10;;;;;;5055859;28;20539;-89
2023/03/10 04:00:37;;;;;;;1.07;0.90;;;13.90;63.10;;;;;;5052309;28;20494;-88
2023/03/10 04:03:06;;;;;;;1.50;1.00;;;13.70;63.60;;;;;;5060262;28;20479;-88
2023/03/10 04:05:34;;;;;;;1.43;0.90;;;13.80;63.20;;;;;;5053340;28;20459;-91
2023/03/10 04:08:02;;;;;;;1.50;0.90;;;13.90;63.00;;;;;;5021365;28;20977;-89
2023/03/10 04:10:31;;;;;;;1.00;0.90;;;14.20;62.40;;;;;;5034794;28;20441;-89
2023/03/10 04:12:58;;;;;;;1.67;1.30;;;14.20;62.00;;;;;;5043131;28;20471;-90
2023/03/10 04:15:26;;;;;;;2.17;1.03;;;14.20;62.00;;;;;;5057675;28;20500;-88
2023/03/10 04:17:53;;;;;;;1.07;0.97;;;14.30;61.50;;;;;;5043157;28;20480;-90
2023/03/10 04:20:20;;;;;;;1.40;1.20;;;14.20;62.00;;;;;;5070022;28;20854;-88
2023/03/10 04:22:50;;;;;;;2.87;1.40;;;14.00;62.10;;;;;;5022519;28;21118;-88
2023/03/10 04:25:20;;;;;;;1.73;1.20;;;14.00;62.40;;;;;;5042273;28;20460;-90
2023/03/10 04:27:47;;;;;;;2.80;1.30;;;14.00;62.20;;;;;;5037376;28;20448;-90
2023/03/10 04:30:15;;;;;;;4.20;1.37;;;14.10;62.20;;;;;;5066914;28;21006;-90
2023/03/10 04:32:46;;;;;;;1.30;1.20;;;14.00;62.10;;;;;;5025025;28;20935;-88
2023/03/10 04:35:13;;;;;;;1.40;1.30;;;13.80;63.00;;;;;;5038627;28;20966;-88
2023/03/10 04:37:43;;;;;;;2.30;1.27;;;13.80;63.20;;;;;;5020021;28;20539;-89
2023/03/10 04:40:13;;;;;;;1.20;1.10;;;13.80;63.00;;;;;;5054035;28;20454;-90
2023/03/10 04:42:42;;;;;;;1.20;1.00;;;13.90;63.40;;;;;;5053629;28;20483;-90
2023/03/10 04:45:11;;;;;;;1.73;0.90;;;14.20;62.20;;;;;;5055159;28;20440;-90
2023/03/10 04:47:39;;;;;;;1.20;1.10;;;14.30;61.30;;;;;;5035218;28;20452;-89
2023/03/10 04:50:07;;;;;;;2.77;1.33;;;14.20;61.50;;;;;;5027055;28;20462;-88
2023/03/10 04:52:34;;;;;;;3.03;1.10;;;14.10;62.30;;;;;;5042263;28;20486;-87
2023/03/10 04:55:01;;;;;;;1.87;1.40;;;14.10;62.70;;;;;;5026855;28;20460;-88
2023/03/10 04:57:29;;;;;;;2.57;1.20;;;14.20;62.60;;;;;;5064993;28;20455;-88
2023/03/10 04:59:57;;;;;;;3.13;0.97;;;14.30;62.50;;;;;;5036806;28;20455;-90
2023/03/10 05:02:25;;;;;;;6.30;1.33;;;14.50;61.80;;;;;;5040814;28;20510;-88
2023/03/10 05:04:52;;;;;;;2.13;1.30;;;14.30;62.50;;;;;;5036714;28;20832;-88
2023/03/10 05:07:21;;;;;;;2.10;1.30;;;14.20;62.60;;;;;;5027258;28;20456;-89
2023/03/10 05:09:49;;;;;;;1.30;0.90;;;14.30;62.40;;;;;;5043354;28;20564;-88
2023/03/10 05:12:17;;;;;;;1.83;1.30;;;14.20;62.50;;;;;;5051583;28;20987;-90
2023/03/10 05:14:44;;;;;;;1.13;0.83;;;14.30;63.10;;;;;;5056676;28;20819;-88
2023/03/10 05:17:13;;;;;;;2.13;1.10;;;13.80;63.40;;;;;;5029514;28;20470;-88
2023/03/10 05:19:40;;;;;;;1.87;1.33;;;13.70;64.50;;;;;;5026456;28;20436;-88
2023/03/10 05:22:10;;;;;;;2.90;1.10;;;13.70;64.50;;;;;;5057395;28;20505;-87
2023/03/10 05:24:37;;;;;;;1.20;1.10;;;13.70;64.20;;;;;;5041747;28;20884;-88
2023/03/10 05:27:07;;;;;;;6.43;4.60;;;13.60;64.60;;;;;;5025371;28;20447;-90
2023/03/10 05:29:37;;;;;;;1.87;1.40;;;13.60;64.90;;;;;;5034285;28;20479;-88
2023/03/10 05:32:11;;;;;;;2.23;0.90;;;13.50;64.70;;;;;;5038169;28;20443;-87
2023/03/10 05:34:40;;;;;;;4.80;1.30;;;13.30;65.30;;;;;;5029849;28;20943;-88
2023/03/10 05:37:07;;;;;;;5.10;3.17;;;13.50;65.20;;;;;;5028857;28;20491;-88
2023/03/10 05:39:34;;;;;;;8.30;5.27;;;13.70;64.40;;;;;;5036586;28;20447;-89
2023/03/10 05:42:06;;;;;;;3.27;1.83;;;13.80;63.90;;;;;;5036393;28;20468;-88
2023/03/10 05:44:34;;;;;;;13.07;6.63;;;13.70;63.90;;;;;;5051793;28;20563;-91
2023/03/10 05:47:04;;;;;;;1.70;1.60;;;14.00;63.20;;;;;;5037299;28;20459;-90
2023/03/10 05:49:32;;;;;;;8.67;5.87;;;14.00;62.90;;;;;;5022504;28;20479;-87
2023/03/10 05:52:00;;;;;;;4.80;1.30;;;14.00;62.90;;;;;;5050771;28;21299;-89
2023/03/10 05:54:28;;;;;;;1.33;1.20;;;13.80;63.50;;;;;;5040933;28;20536;-86
2023/03/10 05:56:55;;;;;;;4.87;4.23;;;13.70;63.50;;;;;;5042498;28;21559;-87
2023/03/10 05:59:26;;;;;;;3.07;1.90;;;13.70;63.20;;;;;;5024167;28;20502;-88
2023/03/10 06:01:54;;;;;;;3.13;1.17;;;13.70;63.20;;;;;;5039850;28;20528;-87
2023/03/10 06:04:21;;;;;;;1.63;1.53;;;13.80;62.40;;;;;;5028796;28;20464;-87
2023/03/10 06:06:49;;;;;;;5.47;1.70;;;13.90;62.00;;;;;;5058111;28;20471;-86
2023/03/10 06:09:17;;;;;;;6.03;0.97;;;13.70;62.30;;;;;;5037726;28;20567;-89
2023/03/10 06:11:43;;;;;;;3.53;2.60;;;13.70;62.60;;;;;;5041426;28;20463;-87
2023/03/10 06:14:11;;;;;;;5.63;2.30;;;13.70;62.50;;;;;;5066308;28;21146;-88
2023/03/10 06:16:37;;;;;;;1.60;1.13;;;13.90;62.30;;;;;;5044543;28;20452;-87
2023/03/10 06:19:04;;;;;;;1.83;1.73;;;13.90;61.70;;;;;;5040562;28;20460;-88
2023/03/10 06:21:31;;;;;;;3.23;1.93;;;13.90;61.60;;;;;;5020675;28;20456;-88
2023/03/10 06:24:00;;;;;;;12.40;8.60;;;14.10;61.20;;;;;;5067344;28;20848;-88
2023/03/10 06:26:27;;;;;;;5.40;2.50;;;14.00;61.20;;;;;;5032701;28;20800;-87
2023/03/10 06:28:56;;;;;;;1.87;1.50;;;14.20;61.20;;;;;;5024301;28;21013;-88
2023/03/10 06:31:24;;;;;;;2.60;1.83;;;14.30;60.20;;;;;;5041698;28;20988;-88
2023/03/10 06:33:53;;;;;;;3.13;2.10;;;14.20;59.90;;;;;;5021771;28;20479;-88
2023/03/10 06:36:22;;;;;;;3.43;2.03;;;14.30;60.50;;;;;;5017984;28;20452;-88
2023/03/10 06:38:49;;;;;;;3.90;2.10;;;14.40;59.80;;;;;;5022250;28;20455;-88
2023/03/10 06:41:19;;;;;;;1.57;1.47;;;14.50;60.00;;;;;;5019324;28;20451;-88
2023/03/10 06:43:47;;;;;;;6.17;2.10;;;14.70;59.50;;;;;;5034300;28;20833;-88
2023/03/10 06:46:15;;;;;;;2.40;1.40;;;14.70;59.60;;;;;;5057541;28;20444;-87
2023/03/10 06:48:42;;;;;;;3.13;1.73;;;14.60;59.50;;;;;;5041384;28;20466;-89
2023/03/10 06:51:12;;;;;;;6.83;3.40;;;14.30;60.80;;;;;;5059634;28;20495;-88
2023/03/10 06:53:40;;;;;;;3.90;1.43;;;14.60;60.50;;;;;;5049238;28;20468;-85
2023/03/10 06:56:10;;;;;;;1.63;1.50;;;14.50;60.30;;;;;;5026271;28;20446;-88
2023/03/10 06:58:39;;;;;;;2.97;2.10;;;14.30;61.20;;;;;;5059345;28;20449;-89
2023/03/10 07:01:07;;;;;;;2.77;2.00;;;14.20;61.40;;;;;;5034218;28;20460;-88
2023/03/10 07:03:35;;;;;;;2.60;2.10;;;14.10;62.30;;;;;;5042381;28;20880;-88
2023/03/10 07:06:02;;;;;;;4.23;2.13;;;14.10;62.20;;;;;;5037039;28;20460;-86
2023/03/10 07:08:31;;;;;;;3.17;2.20;;;14.20;62.20;;;;;;5024307;28;20453;-88
2023/03/10 07:10:58;;;;;;;3.00;2.00;;;14.20;62.00;;;;;;5027182;28;20515;-87
2023/03/10 07:13:25;;;;;;;2.70;1.77;;;13.90;63.40;;;;;;5038199;28;20476;-87
2023/03/10 07:15:53;;;;;;;1.73;1.40;;;14.20;62.60;;;;;;5024479;28;20441;-88
2023/03/10 07:18:21;;;;;;;2.37;1.43;;;14.20;61.50;;;;;;5039013;28;20448;-88
2023/03/10 07:20:51;;;;;;;2.73;1.30;;;14.40;61.70;;;;;;5020037;28;20445;-89
2023/03/10 07:23:19;;;;;;;2.67;1.90;;;14.30;61.50;;;;;;5025687;28;20484;-88
2023/03/10 07:25:48;;;;;;;1.77;1.20;;;14.30;61.90;;;;;;5041255;28;20459;-88
2023/03/10 07:28:15;;;;;;;4.10;1.50;;;14.20;61.90;;;;;;5027621;28;20448;-88
2023/03/10 07:30:43;;;;;;;2.23;1.10;;;14.40;62.30;;;;;;5021158;28;20571;-87
2023/03/10 07:33:12;;;;;;;2.30;1.20;;;14.60;61.20;;;;;;5023969;28;20921;-88
2023/03/10 07:35:39;;;;;;;3.23;1.30;;;14.80;60.20;;;;;;5072607;28;20436;-88
2023/03/10 07:38:05;;;;;;;1.33;1.10;;;14.70;60.20;;;;;;5061614;28;20448;-89
2023/03/10 07:40:33;;;;;;;1.43;1.30;;;14.80;59.60;;;;;;5043507;28;20971;-89
2023/03/10 07:43:00;;;;;;;1.50;1.30;;;14.80;59.90;;;;;;5042351;28;20818;-88
2023/03/10 07:45:29;;;;;;;2.60;1.57;;;14.90;59.90;;;;;;5025574;28;21068;-88
2023/03/10 07:47:57;;;;;;;1.17;0.93;;;14.90;59.80;;;;;;5029694;28;20444;-88
2023/03/10 07:50:25;;;;;;;1.03;0.93;;;15.10;59.30;;;;;;5036370;28;20460;-88
2023/03/10 07:52:53;;;;;;;1.77;1.00;;;15.20;58.90;;;;;;5037843;28;20502;-88
2023/03/10 07:55:22;;;;;;;1.87;1.13;;;15.10;58.10;;;;;;5029964;28;20544;-87
2023/03/10 07:57:50;;;;;;;1.77;1.10;;;15.20;58.70;;;;;;5043858;28;20455;-88
2023/03/10 08:00:18;;;;;;;0.83;0.67;;;14.60;59.80;;;;;;5045893;28;20440;-87
2023/03/10 08:02:45;;;;;;;5.60;1.13;;;14.70;60.10;;;;;;5050528;28;20815;-89
2023/03/10 08:05:13;;;;;;;2.60;0.90;;;14.70;60.00;;;;;;5024506;28;21005;-87
2023/03/10 08:07:43;;;;;;;5.83;1.10;;;14.70;59.80;;;;;;5046394;28;20455;-88
2023/03/10 08:10:12;;;;;;;1.30;0.80;;;14.90;59.40;;;;;;5034906;28;20487;-88
2023/03/10 08:12:39;;;;;;;4.03;1.37;;;15.10;58.70;;;;;;5022971;28;20761;-88
2023/03/10 08:15:08;;;;;;;2.57;1.53;;;14.90;59.20;;;;;;5042661;28;20449;-86
2023/03/10 08:17:35;;;;;;;4.40;3.57;;;14.90;59.20;;;;;;5040378;28;20456;-86
2023/03/10 08:20:05;;;;;;;2.30;1.90;;;15.10;59.00;;;;;;5061775;28;20857;-88
2023/03/10 08:22:32;;;;;;;2.63;1.10;;;15.10;58.60;;;;;;5026625;28;20464;-88
2023/03/10 08:25:02;;;;;;;2.67;1.10;;;15.20;58.20;;;;;;5029707;28;20445;-88
2023/03/10 08:27:30;;;;;;;4.00;0.90;;;15.30;58.30;;;;;;5045230;28;20447;-88
2023/03/10 08:29:57;;;;;;;2.50;1.10;;;15.20;58.20;;;;;;5026768;28;20480;-86
2023/03/10 08:32:25;;;;;;;8.80;1.50;;;15.20;58.50;;;;;;5061548;28;20552;-88
2023/03/10 08:34:52;;;;;;;1.20;0.90;;;15.20;58.10;;;;;;5050407;28;20461;-87
2023/03/10 08:37:19;;;;;;;4.03;1.17;;;15.10;58.20;;;;;;5030488;28;21031;-88
2023/03/10 08:39:46;;;;;;;2.83;2.10;;;15.00;58.00;;;;;;5021668;28;20460;-87
2023/03/10 08:42:15;;;;;;;2.53;1.50;;;15.00;57.80;;;;;;5027729;28;21033;-88
2023/03/10 08:44:43;;;;;;;2.60;1.70;;;15.00;58.30;;;;;;5054383;28;20460;-87
2023/03/10 08:47:11;;;;;;;4.50;1.40;;;15.00;58.30;;;;;;5036682;28;20544;-88
2023/03/10 08:49:38;;;;;;;1.40;1.10;;;15.20;57.90;;;;;;5024625;28;20448;-87
2023/03/10 08:52:06;;;;;;;16.17;10.23;;;15.30;57.00;;;;;;5034799;28;20460;-87
2023/03/10 08:54:33;;;;;;;12.97;7.87;;;15.40;57.00;;;;;;5037555;28;20465;-88
2023/03/10 08:57:01;;;;;;;5.50;1.60;;;15.50;57.00;;;;;;5044459;28;20448;-87
2023/03/10 08:59:30;;;;;;;4.90;2.70;;;15.80;56.40;;;;;;5020075;28;21007;-88
2023/03/10 09:01:57;;;;;;;7.03;4.10;;;15.50;57.10;;;;;;5025070;28;20530;-88
2023/03/10 09:04:24;;;;;;;4.10;2.53;;;15.70;56.90;;;;;;5042472;28;20483;-88
2023/03/10 09:06:51;;;;;;;1.50;1.20;;;15.60;56.30;;;;;;5038897;28;20449;-88
2023/03/10 09:09:18;;;;;;;0.90;0.80;;;15.70;56.80;;;;;;5064106;28;20482;-88
2023/03/10 09:11:45;;;;;;;1.53;1.00;;;15.70;56.40;;;;;;5049915;28;20472;-88
2023/03/10 09:14:15;;;;;;;1.33;0.90;;;15.80;56.60;;;;;;5042089;28;20467;-89
2023/03/10 09:16:43;;;;;;;1.50;1.20;;;15.70;56.30;;;;;;5060001;28;20443;-87
2023/03/10 09:19:10;;;;;;;1.00;0.80;;;15.80;56.30;;;;;;5026277;28;20567;-87
2023/03/10 09:21:38;;;;;;;2.77;1.40;;;15.80;55.10;;;;;;5047185;28;20455;-87
2023/03/10 09:24:06;;;;;;;1.70;0.90;;;15.50;55.30;;;;;;5028384;28;20533;-88
2023/03/10 09:26:33;;;;;;;1.53;0.80;;;15.50;56.10;;;;;;5039761;28;20972;-88
2023/03/10 09:29:00;;;;;;;4.70;1.37;;;15.30;56.00;;;;;;5064041;28;20574;-88
2023/03/10 09:31:31;;;;;;;1.30;1.10;;;15.30;56.90;;;;;;5030524;28;21125;-86
2023/03/10 09:33:59;;;;;;;1.77;0.80;;;15.20;55.80;;;;;;5022816;28;20511;-86
2023/03/10 09:36:28;;;;;;;1.67;0.93;;;14.90;55.00;;;;;;5046105;28;20985;-86
2023/03/10 09:38:56;;;;;;;1.10;0.80;;;14.70;55.80;;;;;;5068924;28;20448;-85
2023/03/10 09:41:40;;;;;;;2.87;1.67;;;14.70;56.20;;;;;;5047463;28;21007;-86
2023/03/10 09:44:23;;;;;;;2.40;1.20;;;14.80;56.00;;;;;;5047763;28;20474;-87
2023/03/10 09:47:02;;;;;;;3.87;2.17;;;14.70;55.70;;;;;;5071642;28;20455;-85
2023/03/10 09:49:35;;;;;;;3.60;1.10;;;14.60;56.10;;;;;;5029659;28;20973;-85
2023/03/10 09:52:19;;;;;;;3.37;1.90;;;14.80;56.00;;;;;;5041448;28;20567;-86
2023/03/10 09:54:54;;;;;;;3.33;0.90;;;14.70;55.40;;;;;;5038327;28;20452;-87
2023/03/10 09:57:23;;;;;;;1.70;0.90;;;14.80;55.50;;;;;;5047057;28;20460;-87
2023/03/10 09:59:54;;;;;;;1.53;1.00;;;14.80;55.00;;;;;;5040329;28;20882;-87
2023/03/10 10:02:23;;;;;;;4.10;2.90;;;14.70;55.00;;;;;;5044074;28;20845;-86
2023/03/10 10:04:55;;;;;;;1.67;1.43;;;14.70;54.90;;;;;;5046006;28;20456;-87
2023/03/10 10:07:27;;;;;;;3.20;1.93;;;14.70;54.80;;;;;;5029823;28;20483;-86
2023/03/10 10:09:58;;;;;;;4.40;3.23;;;14.60;55.70;;;;;;5029124;28;20456;-87
2023/03/10 10:12:26;;;;;;;1.03;0.90;;;14.70;55.00;;;;;;5028997;28;20471;-86
2023/03/10 10:14:58;;;;;;;1.00;0.80;;;14.90;55.40;;;;;;5045337;28;20484;-86
2023/03/10 10:17:47;;;;;;;6.80;2.57;;;15.10;54.60;;;;;;5024887;28;20453;-87
2023/03/10 10:20:21;;;;;;;4.30;1.07;;;15.20;54.20;;;;;;5029337;28;20499;-87
2023/03/10 10:22:48;;;;;;;2.13;1.13;;;15.30;54.00;;;;;;5038370;28;20474;-87
2023/03/10 10:25:19;;;;;;;2.50;0.70;;;15.30;53.90;;;;;;5047893;28;20464;-86
2023/03/10 10:27:47;;;;;;;1.50;1.10;;;15.20;53.90;;;;;;5046453;28;20445;-87
2023/03/10 10:30:30;;;;;;;2.33;0.90;;;15.30;54.20;;;;;;5040594;28;20460;-86
2023/03/10 10:32:59;;;;;;;1.00;0.73;;;15.50;53.60;;;;;;5056421;28;20460;-87
2023/03/10 10:35:29;;;;;;;2.33;1.20;;;15.50;54.00;;;;;;5046164;28;20455;-86
2023/03/10 10:38:05;;;;;;;3.03;1.10;;;15.60;53.10;;;;;;5062068;28;20531;-86
2023/03/10 10:40:35;;;;;;;2.73;1.00;;;15.60;53.90;;;;;;5027689;28;20464;-86
2023/03/10 10:43:06;;;;;;;2.87;0.77;;;15.70;53.30;;;;;;5023713;28;20476;-85
2023/03/10 10:45:36;;;;;;;3.73;1.10;;;15.60;53.60;;;;;;5024553;28;20455;-86
2023/03/10 10:48:03;;;;;;;3.60;1.00;;;15.40;53.00;;;;;;5063155;28;20440;-86
2023/03/10 10:50:33;;;;;;;2.67;0.93;;;15.30;53.70;;;;;;5064127;28;20511;-86
2023/03/10 10:53:23;;;;;;;2.03;0.70;;;15.50;54.00;;;;;;5041290;28;21009;-87
2023/03/10 10:56:00;;;;;;;1.40;0.80;;;15.40;56.20;;;;;;5054165;28;20448;-85
2023/03/10 10:58:30;;;;;;;4.00;1.10;;;15.40;56.80;;;;;;5031473;28;20456;-85
2023/03/10 11:00:59;;;;;;;1.73;1.07;;;15.50;56.00;;;;;;5040721;28;21053;-86
2023/03/10 11:03:30;;;;;;;1.47;1.00;;;15.50;56.60;;;;;;5028453;28;20518;-87
2023/03/10 11:05:59;;;;;;;3.60;1.30;;;15.60;56.30;;;;;;5057620;28;20463;-86
2023/03/10 11:08:38;;;;;;;2.60;1.17;;;15.60;57.30;;;;;;5040456;28;20550;-86
2023/03/10 11:11:19;;;;;;;3.87;1.40;;;15.60;57.20;;;;;;5062844;28;20464;-85
2023/03/10 11:14:11;;;;;;;1.80;0.97;;;15.70;57.10;;;;;;5056062;28;20538;-87
2023/03/10 11:16:48;;;;;;;2.70;1.10;;;15.60;57.50;;;;;;5053161;28;20472;-87
2023/03/10 11:19:24;;;;;;;3.10;1.27;;;15.70;57.50;;;;;;5041404;28;20968;-86
2023/03/10 11:22:00;;;;;;;3.60;2.40;;;15.30;58.50;;;;;;5037861;28;22334;-87
2023/03/10 11:24:34;;;;;;;7.43;1.10;;;15.30;58.80;;;;;;5049174;28;20543;-86
2023/03/10 11:27:09;;;;;;;2.10;1.00;;;14.90;59.10;;;;;;5046189;28;20534;-85
2023/03/10 11:30:00;;;;;;;1.57;1.20;;;14.80;59.10;;;;;;5052465;28;20447;-86
2023/03/10 11:32:35;;;;;;;7.50;1.37;;;14.50;59.90;;;;;;5070864;28;20480;-87
2023/03/10 11:35:15;;;;;;;1.20;1.10;;;14.40;60.70;;;;;;5030367;28;20473;-87
2023/03/10 11:37:50;;;;;;;1.20;1.00;;;14.70;61.20;;;;;;5071181;28;20440;-87
2023/03/10 11:40:23;;;;;;;1.80;1.30;;;14.60;59.70;;;;;;5037326;28;20453;-86
2023/03/10 11:42:59;;;;;;;1.10;0.90;;;14.80;59.70;;;;;;5028457;28;20540;-88
2023/03/10 11:45:32;;;;;;;2.80;1.00;;;14.70;58.80;;;;;;5056435;28;20460;-87
2023/03/10 11:48:24;;;;;;;1.33;1.00;;;14.70;60.10;;;;;;5047448;28;20446;-86
2023/03/10 11:50:53;;;;;;;1.10;0.93;;;15.00;59.40;;;;;;5045626;28;20452;-85
2023/03/10 11:53:30;;;;;;;1.70;1.00;;;14.90;59.50;;;;;;5030178;28;20472;-87
2023/03/10 11:55:59;;;;;;;3.67;1.70;;;14.80;60.40;;;;;;5028383;28;20464;-87
2023/03/10 11:58:34;;;;;;;2.57;1.50;;;15.00;61.00;;;;;;5046695;28;20526;-88
2023/03/10 12:01:02;;;;;;;166.53;70.13;;;15.10;61.80;;;;;;5024446;28;20445;-87
2023/03/10 12:03:42;;;;;;;2.30;2.10;;;15.10;61.00;;;;;;5032519;28;20460;-87
2023/03/10 12:06:13;;;;;;;1.93;1.50;;;15.10;60.40;;;;;;5044646;28;20805;-86
2023/03/10 12:08:42;;;;;;;2.47;1.27;;;15.10;60.80;;;;;;5052705;28;20454;-87
2023/03/10 12:11:16;;;;;;;1.70;1.27;;;14.90;60.80;;;;;;5045739;28;20459;-86
2023/03/10 12:13:46;;;;;;;1.87;1.20;;;15.00;60.60;;;;;;5044613;28;20463;-86
2023/03/10 12:16:18;;;;;;;6.10;1.37;;;15.20;60.10;;;;;;5058189;28;20443;-87
2023/03/10 12:18:45;;;;;;;1.63;1.53;;;15.20;60.80;;;;;;5044297;28;20437;-86
2023/03/10 12:21:16;;;;;;;1.30;1.20;;;15.30;59.80;;;;;;5045342;28;20447;-86
2023/03/10 12:23:46;;;;;;;2.67;1.70;;;15.30;60.20;;;;;;5037126;28;20461;-86
2023/03/10 12:26:13;;;;;;;3.60;1.80;;;15.10;59.20;;;;;;5056952;28;20447;-86
2023/03/10 12:28:41;;;;;;;1.30;1.10;;;15.40;60.10;;;;;;5061159;28;20456;-85
2023/03/10 12:31:10;;;;;;;1.93;1.57;;;15.40;59.20;;;;;;5027505;28;20475;-87
2023/03/10 12:33:51;;;;;;;3.57;1.33;;;15.30;59.00;;;;;;5027257;28;20472;-87
2023/03/10 12:36:25;;;;;;;2.60;0.90;;;15.40;58.80;;;;;;5055271;28;20451;-87
2023/03/10 12:38:56;;;;;;;1.03;0.93;;;15.40;59.10;;;;;;5037690;28;20459;-87
2023/03/10 12:41:43;;;;;;;1.23;1.00;;;15.40;59.30;;;;;;5025217;28;21032;-87
2023/03/10 12:44:35;;;;;;;1.73;1.00;;;15.40;60.20;;;;;;5028444;28;21015;-85
2023/03/10 12:47:20;;;;;;;2.13;0.97;;;15.60;59.50;;;;;;5041338;28;20454;-85
2023/03/10 12:49:54;;;;;;;2.60;1.10;;;15.40;57.80;;;;;;5029288;28;20460;-85
2023/03/10 12:52:34;;;;;;;2.30;0.80;;;15.40;58.70;;;;;;5053491;28;20475;-85
2023/03/10 12:55:16;;;;;;;2.53;1.13;;;15.40;58.40;;;;;;5044810;28;20545;-87
2023/03/10 12:57:53;;;;;;;1.20;1.10;;;15.40;58.00;;;;;;5050347;28;20790;-87
2023/03/10 13:00:29;;;;;;;1.63;0.90;;;15.30;58.00;;;;;;5031934;28;20456;-85